createdAt,value
2023-05-19T00:01:24.939Z,99333.03
2023-05-19T00:03:58.973Z,99330.56
2023-05-19T00:06:29.271Z,99326.44
2023-05-19T00:08:59.066Z,99316.50
2023-05-19T00:11:27.002Z,99324.19
2023-05-19T00:13:55.730Z,99322.22
2023-05-19T00:16:24.453Z,99324.09
2023-05-19T00:18:51.795Z,99321.09
2023-05-19T00:21:19.507Z,99326.53
2023-05-19T00:23:46.873Z,99322.50
2023-05-19T00:26:14.027Z,99329.16
2023-05-19T00:28:44.177Z,99324.41
2023-05-19T00:31:11.617Z,99320.78
2023-05-19T00:33:39.235Z,99320.91
2023-05-19T00:36:07.728Z,99321.47
2023-05-19T00:38:36.562Z,99321.50
2023-05-19T00:41:05.141Z,99322.87
2023-05-19T00:43:34.373Z,99318.03
2023-05-19T00:46:02.348Z,99326.16
2023-05-19T00:48:29.494Z,99324.00
2023-05-19T00:51:02.387Z,99320.53
2023-05-19T00:53:32.844Z,99314.72
2023-05-19T00:56:00.521Z,99316.16
2023-05-19T00:58:30.400Z,99317.22
2023-05-19T01:01:05.194Z,99310.94
2023-05-19T01:03:37.289Z,99315.91
2023-05-19T01:06:05.296Z,99314.72
2023-05-19T01:08:33.812Z,99318.91
2023-05-19T01:11:01.002Z,99318.78
2023-05-19T01:13:29.226Z,99312.38
2023-05-19T01:16:07.064Z,99315.97
2023-05-19T01:18:34.540Z,99309.56
2023-05-19T01:21:23.568Z,99312.88
2023-05-19T01:24:24.614Z,99311.94
2023-05-19T01:27:06.399Z,99317.03
2023-05-19T01:29:47.130Z,99322.16
2023-05-19T01:32:14.680Z,99323.84
2023-05-19T01:34:45.845Z,99325.66
2023-05-19T01:37:13.457Z,99321.34
2023-05-19T01:39:40.639Z,99317.19
2023-05-19T01:42:08.210Z,99311.94
2023-05-19T01:44:36.419Z,99317.91
2023-05-19T01:47:05.331Z,99313.28
2023-05-19T01:49:32.712Z,99312.44
2023-05-19T01:51:59.763Z,99306.94
2023-05-19T01:54:27.133Z,99314.09
2023-05-19T01:57:04.037Z,99308.06
2023-05-19T02:00:45.997Z,99310.78
2023-05-19T02:03:38.522Z,99307.44
2023-05-19T02:06:31.351Z,99309.81
2023-05-19T02:09:11.402Z,99314.69
2023-05-19T02:11:44.110Z,99320.09
2023-05-19T02:14:25.293Z,99313.91
2023-05-19T02:16:52.680Z,99312.69
2023-05-19T02:19:40.612Z,99316.84
2023-05-19T02:22:08.414Z,99311.25
2023-05-19T02:24:37.641Z,99311.38
2023-05-19T02:27:05.625Z,99313.88
2023-05-19T02:29:33.748Z,99310.53
2023-05-19T02:32:02.084Z,99313.16
2023-05-19T02:34:29.641Z,99306.50
2023-05-19T02:36:57.724Z,99302.69
2023-05-19T02:39:24.911Z,99306.94
2023-05-19T02:41:52.060Z,99305.44
2023-05-19T02:44:19.555Z,99300.56
2023-05-19T02:46:48.032Z,99300.56
2023-05-19T02:49:15.300Z,99300.81
2023-05-19T02:51:42.704Z,99313.63
2023-05-19T02:54:10.064Z,99313.88
2023-05-19T02:56:37.175Z,99313.06
2023-05-19T02:59:04.587Z,99307.94
2023-05-19T03:01:32.891Z,99308.88
2023-05-19T03:04:00.246Z,99313.53
2023-05-19T03:06:28.277Z,99307.56
2023-05-19T03:08:55.540Z,99309.16
2023-05-19T03:11:23.289Z,99316.41
2023-05-19T03:13:50.741Z,99315.34
2023-05-19T03:16:17.886Z,99320.31
2023-05-19T03:18:45.020Z,99314.25
2023-05-19T03:21:12.570Z,99316.75
2023-05-19T03:23:39.869Z,99319.84
2023-05-19T03:26:07.019Z,99317.91
2023-05-19T03:28:34.400Z,99317.69
2023-05-19T03:31:03.647Z,99327.91
2023-05-19T03:33:32.348Z,99323.88
2023-05-19T03:35:59.887Z,99329.13
2023-05-19T03:38:28.263Z,99326.50
2023-05-19T03:40:55.808Z,99318.66
2023-05-19T03:43:23.609Z,99320.41
2023-05-19T03:45:51.924Z,99319.00
2023-05-19T03:48:22.857Z,99321.00
2023-05-19T03:50:52.924Z,99320.66
2023-05-19T03:53:20.240Z,99312.31
2023-05-19T03:55:48.564Z,99313.50
2023-05-19T03:58:15.996Z,99314.78
2023-05-19T04:00:45.661Z,99313.84
2023-05-19T04:03:14.715Z,99320.47
2023-05-19T04:05:41.856Z,99331.44
2023-05-19T04:08:08.924Z,99323.47
2023-05-19T04:10:36.436Z,99329.03
2023-05-19T04:13:03.882Z,99336.19
2023-05-19T04:15:30.997Z,99323.03
2023-05-19T04:17:58.657Z,99336.38
2023-05-19T04:20:25.823Z,99335.84
2023-05-19T04:22:52.916Z,99338.09
2023-05-19T04:25:20.390Z,99341.75
2023-05-19T04:27:48.834Z,99350.31
2023-05-19T04:30:22.351Z,99349.81
2023-05-19T04:32:53.781Z,99356.22
2023-05-19T04:35:21.130Z,99351.50
2023-05-19T04:37:48.734Z,99363.19
2023-05-19T04:40:17.394Z,99362.47
2023-05-19T04:42:46.145Z,99360.63
2023-05-19T04:45:14.209Z,99365.59
2023-05-19T04:47:42.418Z,99374.63
2023-05-19T04:50:11.235Z,99375.41
2023-05-19T04:52:38.427Z,99372.12
2023-05-19T04:55:06.418Z,99369.94
2023-05-19T04:57:33.622Z,99373.16
2023-05-19T05:00:01.282Z,99377.47
2023-05-19T05:02:29.085Z,99367.84
2023-05-19T05:04:56.691Z,99364.94
2023-05-19T05:07:26.279Z,99369.53
2023-05-19T05:09:54.352Z,99369.84
2023-05-19T05:12:21.879Z,99375.56
2023-05-19T05:14:50.169Z,99377.38
2023-05-19T05:17:18.120Z,99383.31
2023-05-19T05:19:45.534Z,99380.69
2023-05-19T05:22:13.194Z,99391.25
2023-05-19T05:24:40.810Z,99384.88
2023-05-19T05:27:10.231Z,99393.19
2023-05-19T05:29:37.664Z,99393.16
2023-05-19T05:32:06.901Z,99396.66
2023-05-19T05:34:35.786Z,99390.13
2023-05-19T05:37:02.897Z,99393.88
2023-05-19T05:39:31.852Z,99395.69
2023-05-19T05:42:00.006Z,99393.72
2023-05-19T05:44:28.313Z,99391.16
2023-05-19T05:46:56.932Z,99395.44
2023-05-19T05:49:24.613Z,99393.44
2023-05-19T05:52:05.021Z,99389.94
2023-05-19T05:54:35.275Z,99398.72
2023-05-19T05:57:03.436Z,99400.41
2023-05-19T05:59:30.595Z,99395.78
2023-05-19T06:01:58.607Z,99389.91
2023-05-19T06:04:25.927Z,99393.22
2023-05-19T06:06:57.040Z,99397.31
2023-05-19T06:09:24.970Z,99395.03
2023-05-19T06:11:52.439Z,99400.88
2023-05-19T06:14:19.819Z,99405.44
2023-05-19T06:16:48.259Z,99401.91
2023-05-19T06:19:16.299Z,99407.59
2023-05-19T06:21:44.565Z,99411.31
2023-05-19T06:24:12.448Z,99409.75
2023-05-19T06:26:39.874Z,99403.34
2023-05-19T06:29:07.317Z,99407.47
2023-05-19T06:31:34.683Z,99409.59
2023-05-19T06:34:03.558Z,99409.97
2023-05-19T06:36:30.682Z,99407.41
2023-05-19T06:38:59.250Z,99410.34
2023-05-19T06:41:28.698Z,99410.47
2023-05-19T06:43:56.547Z,99418.66
2023-05-19T06:46:24.601Z,99416.84
2023-05-19T06:48:52.248Z,99430.72
2023-05-19T06:51:21.811Z,99431.50
2023-05-19T06:53:50.046Z,99436.97
2023-05-19T06:56:19.229Z,99454.34
2023-05-19T06:58:46.449Z,99447.41
2023-05-19T07:01:13.553Z,99454.09
2023-05-19T07:03:41.902Z,99447.09
2023-05-19T07:06:09.427Z,99441.47
2023-05-19T07:08:37.283Z,99452.03
2023-05-19T07:11:05.324Z,99451.22
2023-05-19T07:13:33.033Z,99444.00
2023-05-19T07:16:00.318Z,99447.53
2023-05-19T07:18:31.783Z,99441.44
2023-05-19T07:20:59.136Z,99437.87
2023-05-19T07:23:26.490Z,99431.09
2023-05-19T07:25:56.174Z,99437.41
2023-05-19T07:28:23.511Z,99429.97
2023-05-19T07:30:54.508Z,99435.25
2023-05-19T07:33:21.869Z,99433.75
2023-05-19T07:35:51.495Z,99424.16
2023-05-19T07:38:18.811Z,99431.56
2023-05-19T07:40:46.372Z,99430.37
2023-05-19T07:43:13.430Z,99426.38
2023-05-19T07:45:40.538Z,99433.53
2023-05-19T07:48:08.587Z,99431.50
2023-05-19T07:50:35.822Z,99426.25
2023-05-19T07:53:03.082Z,99431.59
2023-05-19T07:55:30.804Z,99433.88
2023-05-19T07:57:57.889Z,99423.78
2023-05-19T08:00:25.093Z,99424.84
2023-05-19T08:02:55.250Z,99419.91
2023-05-19T08:05:24.868Z,99420.72
2023-05-19T08:07:52.650Z,99422.63
2023-05-19T08:10:19.981Z,99422.28
2023-05-19T08:12:47.086Z,99417.75
2023-05-19T08:15:14.168Z,99417.09
2023-05-19T08:17:41.648Z,99412.66
2023-05-19T08:20:10.306Z,99402.22
2023-05-19T08:22:37.455Z,99419.72
2023-05-19T08:25:05.549Z,99418.72
2023-05-19T08:27:33.021Z,99415.34
2023-05-19T08:30:00.298Z,99420.94
2023-05-19T08:32:27.615Z,99420.56
2023-05-19T08:34:54.806Z,99416.94
2023-05-19T08:37:21.969Z,99418.94
2023-05-19T08:39:49.299Z,99410.28
2023-05-19T08:42:16.449Z,99411.12
2023-05-19T08:44:44.132Z,99410.78
2023-05-19T08:47:14.294Z,99404.69
2023-05-19T08:49:47.063Z,99411.41
2023-05-19T08:52:25.834Z,99413.63
2023-05-19T08:55:03.478Z,99409.75
2023-05-19T08:57:32.728Z,99425.94
2023-05-19T09:00:00.573Z,99413.66
2023-05-19T09:02:27.944Z,99406.94
2023-05-19T09:04:56.555Z,99406.69
2023-05-19T09:07:25.682Z,99406.37
2023-05-19T09:09:52.893Z,99417.78
2023-05-19T09:12:21.061Z,99412.03
2023-05-19T09:14:48.652Z,99418.19
2023-05-19T09:17:15.862Z,99406.34
2023-05-19T09:19:44.803Z,99411.31
2023-05-19T09:22:11.941Z,99406.69
2023-05-19T09:24:40.699Z,99411.88
2023-05-19T09:27:08.433Z,99404.88
2023-05-19T09:29:35.620Z,99400.75
2023-05-19T09:32:05.228Z,99405.34
2023-05-19T09:34:32.719Z,99401.72
2023-05-19T09:37:00.296Z,99397.31
2023-05-19T09:39:28.823Z,99401.63
2023-05-19T09:41:58.681Z,99396.72
2023-05-19T09:44:30.456Z,99391.75
2023-05-19T09:46:58.878Z,99391.78
2023-05-19T09:49:29.769Z,99385.84
2023-05-19T09:52:03.714Z,99386.47
2023-05-19T09:54:32.488Z,99378.16
2023-05-19T09:57:01.053Z,99378.41
2023-05-19T09:59:32.354Z,99366.56
2023-05-19T10:02:02.940Z,99369.22
2023-05-19T10:04:32.066Z,99371.88
2023-05-19T10:07:01.540Z,99375.47
2023-05-19T10:09:30.003Z,99374.34
2023-05-19T10:11:58.349Z,99375.75
2023-05-19T10:14:26.884Z,99373.06
2023-05-19T10:16:56.212Z,99375.94
2023-05-19T10:19:25.489Z,99360.94
2023-05-19T10:21:53.257Z,99376.50
2023-05-19T10:24:21.462Z,99363.47
2023-05-19T10:26:56.527Z,99357.72
2023-05-19T10:29:29.250Z,99361.00
2023-05-19T10:32:02.379Z,99353.81
2023-05-19T10:34:40.604Z,99354.16
2023-05-19T10:37:25.015Z,99359.84
2023-05-19T10:39:52.557Z,99347.06
2023-05-19T10:42:32.496Z,99353.72
2023-05-19T10:45:18.826Z,99347.66
2023-05-19T10:47:46.517Z,99351.88
2023-05-19T10:50:13.834Z,99340.06
2023-05-19T10:52:40.984Z,99336.44
2023-05-19T10:55:17.884Z,99335.63
2023-05-19T10:57:58.876Z,99331.06
2023-05-19T11:00:31.336Z,99335.84
2023-05-19T11:03:15.340Z,99338.06
2023-05-19T11:05:45.643Z,99329.66
2023-05-19T11:08:13.318Z,99323.50
2023-05-19T11:10:44.178Z,99325.69
2023-05-19T11:13:20.486Z,99325.44
2023-05-19T11:15:47.625Z,99326.28
2023-05-19T11:18:17.543Z,99330.37
2023-05-19T11:20:44.730Z,99326.88
2023-05-19T11:23:18.526Z,99320.75
2023-05-19T11:25:51.245Z,99325.88
2023-05-19T11:28:20.754Z,99319.84
2023-05-19T11:30:52.569Z,99319.22
2023-05-19T11:33:20.687Z,99323.50
2023-05-19T11:35:50.591Z,99321.72
2023-05-19T11:38:19.141Z,99311.12
2023-05-19T11:40:47.854Z,99323.84
2023-05-19T11:43:16.794Z,99327.94
2023-05-19T11:45:44.196Z,99315.63
2023-05-19T11:48:12.784Z,99327.12
2023-05-19T11:50:44.251Z,99329.13
2023-05-19T11:53:16.435Z,99323.69
2023-05-19T11:55:48.443Z,99327.81
2023-05-19T11:58:16.774Z,99322.72
2023-05-19T12:00:48.510Z,99320.53
2023-05-19T12:03:21.904Z,99324.69
2023-05-19T12:05:50.015Z,99321.38
2023-05-19T12:08:21.639Z,99313.72
2023-05-19T12:10:52.758Z,99318.41
2023-05-19T12:13:20.994Z,99315.31
2023-05-19T12:15:48.290Z,99317.47
2023-05-19T12:18:15.469Z,99305.06
2023-05-19T12:20:43.298Z,99297.06
2023-05-19T12:23:10.494Z,99299.81
2023-05-19T12:25:38.528Z,99298.13
2023-05-19T12:28:07.991Z,99297.53
2023-05-19T12:30:35.985Z,99288.69
2023-05-19T12:33:03.521Z,99285.16
2023-05-19T12:35:33.935Z,99279.84
2023-05-19T12:38:05.715Z,99284.37
2023-05-19T12:40:35.713Z,99279.41
2023-05-19T12:43:04.019Z,99266.16
2023-05-19T12:45:35.025Z,99265.69
2023-05-19T12:48:06.596Z,99269.50
2023-05-19T12:50:34.964Z,99255.16
2023-05-19T12:53:02.644Z,99257.78
2023-05-19T12:55:30.166Z,99266.38
2023-05-19T12:57:58.305Z,99257.91
2023-05-19T13:00:28.936Z,99265.97
2023-05-19T13:03:00.349Z,99259.91
2023-05-19T13:05:29.340Z,99260.06
2023-05-19T13:08:24.115Z,99265.72
2023-05-19T13:10:51.859Z,99256.38
2023-05-19T13:13:19.392Z,99249.56
2023-05-19T13:15:48.951Z,99240.84
2023-05-19T13:18:16.751Z,99251.72
2023-05-19T13:20:45.270Z,99238.84
2023-05-19T13:23:13.420Z,99244.72
2023-05-19T13:25:42.106Z,99241.69
2023-05-19T13:28:09.855Z,99243.75
2023-05-19T13:30:39.061Z,99239.19
2023-05-19T13:33:07.605Z,99239.16
2023-05-19T13:35:37.077Z,99233.59
2023-05-19T13:38:11.988Z,99240.22
2023-05-19T13:40:40.225Z,99228.38
2023-05-19T13:43:08.631Z,99234.91
2023-05-19T13:45:36.965Z,99222.00
2023-05-19T13:48:04.684Z,99219.16
2023-05-19T13:50:34.285Z,99218.56
2023-05-19T13:53:01.405Z,99218.13
2023-05-19T13:55:29.001Z,99212.66
2023-05-19T13:57:56.082Z,99213.22
2023-05-19T14:00:23.967Z,99210.66
2023-05-19T14:02:51.370Z,99205.94
2023-05-19T14:05:18.736Z,99208.13
2023-05-19T14:07:46.376Z,99203.03
2023-05-19T14:10:13.789Z,99205.22
2023-05-19T14:13:07.985Z,99208.06
2023-05-19T14:15:28.895Z,99208.06
2023-05-19T14:17:56.502Z,99202.75
2023-05-19T14:20:23.600Z,99208.53
2023-05-19T14:22:50.951Z,99214.53
2023-05-19T14:25:18.088Z,99207.34
2023-05-19T14:27:45.126Z,99210.22
2023-05-19T14:30:12.744Z,99208.19
2023-05-19T14:32:39.883Z,99211.69
2023-05-19T14:35:07.431Z,99211.81
2023-05-19T14:37:36.018Z,99207.00
2023-05-19T14:40:04.498Z,99203.75
2023-05-19T14:42:32.549Z,99202.06
2023-05-19T14:44:59.857Z,99194.47
2023-05-19T14:47:27.485Z,99202.75
2023-05-19T14:49:54.649Z,99206.47
2023-05-19T14:52:22.685Z,99202.53
2023-05-19T14:54:49.778Z,99199.28
2023-05-19T14:57:16.806Z,99196.38
2023-05-19T14:59:44.536Z,99197.56
2023-05-19T15:02:12.670Z,99206.00
2023-05-19T15:04:39.703Z,99193.50
2023-05-19T15:07:10.181Z,99202.16
2023-05-19T15:09:38.745Z,99201.72
2023-05-19T15:12:06.025Z,99194.13
2023-05-19T15:14:33.339Z,99199.66
2023-05-19T15:17:00.551Z,99196.72
2023-05-19T15:19:27.804Z,99193.28
2023-05-19T15:21:55.457Z,99202.69
2023-05-19T15:24:22.642Z,99196.59
2023-05-19T15:26:49.775Z,99199.50
2023-05-19T15:29:17.143Z,99197.38
2023-05-19T15:31:44.289Z,99197.56
2023-05-19T15:34:11.357Z,99192.66
2023-05-19T15:36:38.667Z,99203.38
2023-05-19T15:39:06.520Z,99200.06
2023-05-19T15:41:33.805Z,99197.59
2023-05-19T15:44:02.374Z,99198.22
2023-05-19T15:46:29.864Z,99197.25
2023-05-19T15:48:56.991Z,99197.88
2023-05-19T15:51:24.490Z,99197.78
2023-05-19T15:53:51.802Z,99200.47
2023-05-19T15:56:19.456Z,99193.09
2023-05-19T15:58:46.954Z,99196.38
2023-05-19T16:01:15.609Z,99187.78
2023-05-19T16:03:43.836Z,99192.09
2023-05-19T16:06:11.049Z,99186.94
2023-05-19T16:08:38.301Z,99184.87
2023-05-19T16:11:06.046Z,99188.16
2023-05-19T16:13:33.916Z,99189.75
2023-05-19T16:16:01.692Z,99196.72
2023-05-19T16:18:31.840Z,99190.56
2023-05-19T16:20:58.922Z,99192.34
2023-05-19T16:23:27.399Z,99184.25
2023-05-19T16:25:54.924Z,99187.81
2023-05-19T16:28:24.637Z,99190.25
2023-05-19T16:30:52.137Z,99185.25
2023-05-19T16:33:19.596Z,99188.31
2023-05-19T16:35:46.708Z,99189.00
2023-05-19T16:38:13.769Z,99194.25
2023-05-19T16:40:41.093Z,99190.56
2023-05-19T16:43:08.192Z,99195.81
2023-05-19T16:45:35.299Z,99191.94
2023-05-19T16:48:02.870Z,99189.78
2023-05-19T16:50:29.954Z,99191.25
2023-05-19T16:52:57.134Z,99183.81
2023-05-19T16:55:25.419Z,99184.63
2023-05-19T16:57:52.572Z,99180.91
2023-05-19T17:00:19.899Z,99180.09
2023-05-19T17:02:47.378Z,99183.50
2023-05-19T17:05:14.647Z,99182.31
2023-05-19T17:07:41.723Z,99171.16
2023-05-19T17:10:09.546Z,99169.59
2023-05-19T17:12:36.945Z,99169.91
2023-05-19T17:15:05.077Z,99170.50
2023-05-19T17:17:32.402Z,99173.94
2023-05-19T17:19:59.850Z,99174.25
2023-05-19T17:22:28.825Z,99175.88
2023-05-19T17:24:57.570Z,99172.91
2023-05-19T17:27:24.721Z,99179.66
2023-05-19T17:29:52.037Z,99169.84
2023-05-19T17:32:22.197Z,99177.34
2023-05-19T17:34:49.351Z,99187.53
2023-05-19T17:37:19.019Z,99184.09
2023-05-19T17:39:46.395Z,99187.69
2023-05-19T17:42:13.592Z,99187.06
2023-05-19T17:44:41.338Z,99196.22
2023-05-19T17:47:08.969Z,99191.44
2023-05-19T17:49:36.163Z,99196.69
2023-05-19T17:52:03.569Z,99196.50
2023-05-19T17:54:31.258Z,99196.62
2023-05-19T17:56:59.153Z,99196.62
2023-05-19T17:59:26.515Z,99199.84
2023-05-19T18:01:54.243Z,99199.47
2023-05-19T18:04:22.090Z,99195.78
2023-05-19T18:06:51.440Z,99201.63
2023-05-19T18:09:19.831Z,99199.56
2023-05-19T18:11:47.658Z,99193.50
2023-05-19T18:14:14.797Z,99197.38
2023-05-19T18:16:42.043Z,99195.00
2023-05-19T18:19:09.742Z,99196.22
2023-05-19T18:21:37.264Z,99196.28
2023-05-19T18:24:05.446Z,99189.03
2023-05-19T18:26:33.521Z,99194.03
2023-05-19T18:29:04.789Z,99209.63
2023-05-19T18:31:33.083Z,99201.56
2023-05-19T18:34:02.520Z,99203.06
2023-05-19T18:36:29.666Z,99202.56
2023-05-19T18:38:58.229Z,99206.53
2023-05-19T18:41:26.128Z,99205.75
2023-05-19T18:43:53.223Z,99206.41
2023-05-19T18:46:20.826Z,99204.41
2023-05-19T18:48:50.629Z,99205.09
2023-05-19T18:51:18.667Z,99209.72
2023-05-19T18:53:48.615Z,99201.41
2023-05-19T18:56:26.192Z,99206.19
2023-05-19T18:58:54.717Z,99205.22
2023-05-19T19:01:22.179Z,99208.13
2023-05-19T19:03:50.067Z,99213.41
2023-05-19T19:06:17.379Z,99216.63
2023-05-19T19:08:44.756Z,99222.50
2023-05-19T19:11:11.964Z,99219.31
2023-05-19T19:13:39.775Z,99224.53
2023-05-19T19:16:08.675Z,99225.94
2023-05-19T19:18:36.523Z,99226.56
2023-05-19T19:21:05.635Z,99227.50
2023-05-19T19:23:33.381Z,99231.59
2023-05-19T19:26:00.735Z,99230.69
2023-05-19T19:28:27.851Z,99240.72
2023-05-19T19:30:55.250Z,99242.72
2023-05-19T19:33:24.476Z,99243.53
2023-05-19T19:35:52.652Z,99242.41
2023-05-19T19:38:20.163Z,99242.72
2023-05-19T19:40:47.285Z,99240.31
2023-05-19T19:43:14.292Z,99244.09
2023-05-19T19:45:42.284Z,99247.00
2023-05-19T19:48:09.439Z,99243.53
2023-05-19T19:50:36.667Z,99239.09
2023-05-19T19:53:04.087Z,99243.53
2023-05-19T19:55:32.095Z,99248.66
2023-05-19T19:57:59.180Z,99249.62
2023-05-19T20:00:26.595Z,99248.38
2023-05-19T20:03:03.629Z,99250.53
2023-05-19T20:05:32.555Z,99246.94
2023-05-19T20:08:00.079Z,99246.94
2023-05-19T20:10:27.243Z,99237.75
2023-05-19T20:12:54.400Z,99242.72
2023-05-19T20:15:21.735Z,99240.72
2023-05-19T20:17:48.839Z,99246.63
2023-05-19T20:20:16.308Z,99241.34
2023-05-19T20:22:45.829Z,99241.50
2023-05-19T20:25:12.901Z,99252.56
2023-05-19T20:27:41.953Z,99243.00
2023-05-19T20:30:09.635Z,99241.03
2023-05-19T20:32:36.791Z,99244.00
2023-05-19T20:35:04.011Z,99243.00
2023-05-19T20:37:31.328Z,99243.53
2023-05-19T20:39:58.632Z,99248.50
2023-05-19T20:42:25.772Z,99247.28
2023-05-19T20:44:53.464Z,99241.66
2023-05-19T20:47:21.050Z,99241.00
2023-05-19T20:49:51.196Z,99234.41
2023-05-19T20:52:18.623Z,99233.47
2023-05-19T20:54:46.516Z,99234.22
2023-05-19T20:57:13.741Z,99223.34
2023-05-19T20:59:41.182Z,99220.25
2023-05-19T21:02:08.198Z,99222.75
2023-05-19T21:04:35.453Z,99215.50
2023-05-19T21:07:02.960Z,99223.94
2023-05-19T21:09:30.090Z,99223.44
2023-05-19T21:11:57.232Z,99224.09
2023-05-19T21:14:25.426Z,99234.84
2023-05-19T21:16:56.226Z,99237.94
2023-05-19T21:19:23.577Z,99238.25
2023-05-19T21:21:52.162Z,99238.56
2023-05-19T21:24:19.186Z,99228.31
2023-05-19T21:26:49.232Z,99230.47
2023-05-19T21:29:16.593Z,99229.09
2023-05-19T21:31:43.641Z,99229.09
2023-05-19T21:34:10.764Z,99225.03
2023-05-19T21:36:38.126Z,99233.91
2023-05-19T21:39:05.338Z,99232.31
2023-05-19T21:41:32.574Z,99229.06
2023-05-19T21:43:59.972Z,99225.78
2023-05-19T21:46:29.073Z,99234.75
2023-05-19T21:48:56.317Z,99230.50
2023-05-19T21:51:23.688Z,99232.84
2023-05-19T21:53:50.878Z,99231.87
2023-05-19T21:56:18.073Z,99225.75
2023-05-19T21:58:45.433Z,99226.44
2023-05-19T22:01:13.269Z,99225.66
2023-05-19T22:03:40.758Z,99221.25
2023-05-19T22:06:08.331Z,99219.41
2023-05-19T22:08:35.409Z,99209.22
2023-05-19T22:11:02.940Z,99210.88
2023-05-19T22:13:30.294Z,99204.22
2023-05-19T22:15:57.848Z,99193.47
2023-05-19T22:18:25.234Z,99193.47
2023-05-19T22:20:52.348Z,99193.25
2023-05-19T22:23:19.462Z,99195.56
2023-05-19T22:25:46.995Z,99188.25
2023-05-19T22:28:14.086Z,99184.59
2023-05-19T22:30:42.194Z,99184.69
2023-05-19T22:33:11.588Z,99174.25
2023-05-19T22:35:39.118Z,99164.50
2023-05-19T22:38:07.468Z,99173.34
2023-05-19T22:40:37.021Z,99165.19
2023-05-19T22:43:04.342Z,99167.81
2023-05-19T22:45:31.983Z,99167.97
2023-05-19T22:47:59.526Z,99167.81
2023-05-19T22:50:26.793Z,99171.94
2023-05-19T22:52:53.904Z,99170.16
2023-05-19T22:55:21.348Z,99168.22
2023-05-19T22:57:48.734Z,99169.19
2023-05-19T23:00:18.607Z,99162.63
2023-05-19T23:02:46.281Z,99170.56
2023-05-19T23:05:13.440Z,99173.19
2023-05-19T23:07:40.601Z,99163.91
2023-05-19T23:10:08.398Z,99169.53
2023-05-19T23:12:35.749Z,99158.25
2023-05-19T23:15:03.602Z,99154.13
2023-05-19T23:17:31.291Z,99150.06
2023-05-19T23:19:58.579Z,99150.59
2023-05-19T23:22:25.767Z,99145.31
2023-05-19T23:24:53.108Z,99142.34
2023-05-19T23:27:20.144Z,99143.00
2023-05-19T23:29:50.902Z,99145.00
2023-05-19T23:32:18.351Z,99146.19
2023-05-19T23:34:47.343Z,99142.22
2023-05-19T23:37:14.353Z,99151.97
2023-05-19T23:39:41.795Z,99151.47
2023-05-19T23:42:08.929Z,99137.97
2023-05-19T23:44:36.176Z,99145.25
2023-05-19T23:47:03.662Z,99125.28
2023-05-19T23:49:30.769Z,99125.91
2023-05-19T23:51:57.868Z,99117.97
2023-05-19T23:54:26.640Z,99111.00
2023-05-19T23:56:55.784Z,99112.97
2023-05-19T23:59:23.112Z,99125.50
